sensor_id;sensor_type;location;lat;lon;timestamp;P1;durP1;ratioP1;P2;durP2;ratioP2
15876;SDS011;8037;51.666;7.834;2022-12-18T00:01:03;9.40;;;7.20;;
15876;SDS011;8037;51.666;7.834;2022-12-18T00:03:34;9.10;;;6.30;;
15876;SDS011;8037;51.666;7.834;2022-12-18T00:06:00;8.80;;;7.27;;
15876;SDS011;8037;51.666;7.834;2022-12-18T00:08:27;5.93;;;5.33;;
15876;SDS011;8037;51.666;7.834;2022-12-18T00:10:53;7.33;;;5.00;;
15876;SDS011;8037;51.666;7.834;2022-12-18T00:13:19;7.30;;;3.60;;
15876;SDS011;8037;51.666;7.834;2022-12-18T00:15:45;6.00;;;4.43;;
15876;SDS011;8037;51.666;7.834;2022-12-18T00:18:12;6.30;;;5.30;;
15876;SDS011;8037;51.666;7.834;2022-12-18T00:20:38;9.30;;;7.27;;
15876;SDS011;8037;51.666;7.834;2022-12-18T00:23:05;11.77;;;6.00;;
15876;SDS011;8037;51.666;7.834;2022-12-18T00:25:35;6.43;;;4.93;;
15876;SDS011;8037;51.666;7.834;2022-12-18T00:28:02;10.20;;;8.33;;
15876;SDS011;8037;51.666;7.834;2022-12-18T00:30:28;6.43;;;3.43;;
15876;SDS011;8037;51.666;7.834;2022-12-18T00:32:54;6.43;;;5.03;;
15876;SDS011;8037;51.666;7.834;2022-12-18T00:35:20;4.37;;;3.50;;
15876;SDS011;8037;51.666;7.834;2022-12-18T00:37:46;1.83;;;1.73;;
15876;SDS011;8037;51.666;7.834;2022-12-18T00:40:12;12.43;;;5.93;;
15876;SDS011;8037;51.666;7.834;2022-12-18T00:42:38;7.00;;;5.77;;
15876;SDS011;8037;51.666;7.834;2022-12-18T00:45:28;5.07;;;4.60;;
15876;SDS011;8037;51.666;7.834;2022-12-18T00:47:55;7.67;;;6.40;;
15876;SDS011;8037;51.666;7.834;2022-12-18T00:50:21;9.23;;;7.03;;
15876;SDS011;8037;51.666;7.834;2022-12-18T00:52:47;15.67;;;7.67;;
15876;SDS011;8037;51.666;7.834;2022-12-18T00:55:13;13.37;;;6.70;;
15876;SDS011;8037;51.666;7.834;2022-12-18T00:57:39;9.60;;;6.90;;
15876;SDS011;8037;51.666;7.834;2022-12-18T01:00:06;8.47;;;6.43;;
15876;SDS011;8037;51.666;7.834;2022-12-18T01:02:32;9.73;;;7.03;;
15876;SDS011;8037;51.666;7.834;2022-12-18T01:04:58;11.63;;;6.43;;
15876;SDS011;8037;51.666;7.834;2022-12-18T01:07:24;8.70;;;7.00;;
15876;SDS011;8037;51.666;7.834;2022-12-18T01:09:50;19.83;;;10.47;;
15876;SDS011;8037;51.666;7.834;2022-12-18T01:12:15;11.00;;;8.90;;
15876;SDS011;8037;51.666;7.834;2022-12-18T01:14:41;14.03;;;9.67;;
15876;SDS011;8037;51.666;7.834;2022-12-18T01:17:07;12.73;;;8.03;;
15876;SDS011;8037;51.666;7.834;2022-12-18T01:19:33;9.20;;;7.10;;
15876;SDS011;8037;51.666;7.834;2022-12-18T01:21:59;12.30;;;6.87;;
15876;SDS011;8037;51.666;7.834;2022-12-18T01:24:25;12.27;;;6.80;;
15876;SDS011;8037;51.666;7.834;2022-12-18T01:26:51;12.17;;;9.40;;
15876;SDS011;8037;51.666;7.834;2022-12-18T01:29:17;13.50;;;8.40;;
15876;SDS011;8037;51.666;7.834;2022-12-18T01:31:43;14.50;;;7.77;;
15876;SDS011;8037;51.666;7.834;2022-12-18T01:34:09;16.50;;;9.30;;
15876;SDS011;8037;51.666;7.834;2022-12-18T01:36:36;13.50;;;8.57;;
15876;SDS011;8037;51.666;7.834;2022-12-18T01:39:06;9.27;;;8.23;;
15876;SDS011;8037;51.666;7.834;2022-12-18T01:41:35;12.27;;;7.30;;
15876;SDS011;8037;51.666;7.834;2022-12-18T01:47:05;15.67;;;9.30;;
15876;SDS011;8037;51.666;7.834;2022-12-18T01:49:31;10.67;;;8.57;;
15876;SDS011;8037;51.666;7.834;2022-12-18T01:51:57;9.30;;;7.13;;
15876;SDS011;8037;51.666;7.834;2022-12-18T01:54:23;10.53;;;6.50;;
15876;SDS011;8037;51.666;7.834;2022-12-18T01:56:49;10.40;;;6.43;;
15876;SDS011;8037;51.666;7.834;2022-12-18T01:59:15;10.20;;;6.93;;
15876;SDS011;8037;51.666;7.834;2022-12-18T02:01:41;9.90;;;5.93;;
15876;SDS011;8037;51.666;7.834;2022-12-18T02:04:18;15.87;;;6.80;;
15876;SDS011;8037;51.666;7.834;2022-12-18T02:06:44;9.30;;;6.10;;
15876;SDS011;8037;51.666;7.834;2022-12-18T02:09:17;10.43;;;7.80;;
15876;SDS011;8037;51.666;7.834;2022-12-18T02:11:49;14.57;;;7.57;;
15876;SDS011;8037;51.666;7.834;2022-12-18T02:17:38;10.00;;;7.90;;
15876;SDS011;8037;51.666;7.834;2022-12-18T02:20:13;14.80;;;8.87;;
15876;SDS011;8037;51.666;7.834;2022-12-18T02:25:18;10.23;;;8.80;;
15876;SDS011;8037;51.666;7.834;2022-12-18T02:27:47;11.00;;;7.93;;
15876;SDS011;8037;51.666;7.834;2022-12-18T02:30:15;15.33;;;8.90;;
15876;SDS011;8037;51.666;7.834;2022-12-18T02:32:43;8.30;;;7.20;;
15876;SDS011;8037;51.666;7.834;2022-12-18T02:35:15;10.40;;;7.57;;
15876;SDS011;8037;51.666;7.834;2022-12-18T02:37:49;7.93;;;6.33;;
15876;SDS011;8037;51.666;7.834;2022-12-18T02:40:20;9.07;;;6.53;;
15876;SDS011;8037;51.666;7.834;2022-12-18T02:42:47;12.40;;;8.60;;
15876;SDS011;8037;51.666;7.834;2022-12-18T02:45:13;9.20;;;7.67;;
15876;SDS011;8037;51.666;7.834;2022-12-18T02:47:40;11.13;;;7.87;;
15876;SDS011;8037;51.666;7.834;2022-12-18T02:52:39;13.20;;;9.13;;
15876;SDS011;8037;51.666;7.834;2022-12-18T02:58:05;18.57;;;7.90;;
15876;SDS011;8037;51.666;7.834;2022-12-18T03:00:51;6.63;;;5.90;;
15876;SDS011;8037;51.666;7.834;2022-12-18T03:03:36;13.07;;;8.10;;
15876;SDS011;8037;51.666;7.834;2022-12-18T03:06:08;24.47;;;7.83;;
15876;SDS011;8037;51.666;7.834;2022-12-18T03:08:41;7.10;;;6.07;;
15876;SDS011;8037;51.666;7.834;2022-12-18T03:11:10;9.27;;;6.80;;
15876;SDS011;8037;51.666;7.834;2022-12-18T03:13:43;8.50;;;6.93;;
15876;SDS011;8037;51.666;7.834;2022-12-18T03:16:14;9.30;;;7.80;;
15876;SDS011;8037;51.666;7.834;2022-12-18T03:18:51;7.50;;;6.43;;
15876;SDS011;8037;51.666;7.834;2022-12-18T03:21:38;9.50;;;7.47;;
15876;SDS011;8037;51.666;7.834;2022-12-18T03:24:08;9.00;;;7.13;;
15876;SDS011;8037;51.666;7.834;2022-12-18T03:26:35;10.10;;;5.60;;
15876;SDS011;8037;51.666;7.834;2022-12-18T03:29:09;9.90;;;5.97;;
15876;SDS011;8037;51.666;7.834;2022-12-18T03:31:47;9.77;;;7.50;;
15876;SDS011;8037;51.666;7.834;2022-12-18T03:34:26;7.97;;;7.17;;
15876;SDS011;8037;51.666;7.834;2022-12-18T03:36:56;8.93;;;6.40;;
15876;SDS011;8037;51.666;7.834;2022-12-18T03:39:23;9.70;;;7.23;;
15876;SDS011;8037;51.666;7.834;2022-12-18T03:41:53;6.40;;;5.80;;
15876;SDS011;8037;51.666;7.834;2022-12-18T03:44:43;13.53;;;7.37;;
15876;SDS011;8037;51.666;7.834;2022-12-18T03:47:32;8.27;;;6.23;;
15876;SDS011;8037;51.666;7.834;2022-12-18T03:50:09;7.07;;;5.50;;
15876;SDS011;8037;51.666;7.834;2022-12-18T03:55:32;12.10;;;7.23;;
15876;SDS011;8037;51.666;7.834;2022-12-18T03:57:59;6.97;;;6.37;;
15876;SDS011;8037;51.666;7.834;2022-12-18T04:00:27;9.23;;;6.40;;
15876;SDS011;8037;51.666;7.834;2022-12-18T04:02:55;11.23;;;5.90;;
15876;SDS011;8037;51.666;7.834;2022-12-18T04:05:22;9.80;;;6.73;;
15876;SDS011;8037;51.666;7.834;2022-12-18T04:07:49;13.63;;;6.43;;
15876;SDS011;8037;51.666;7.834;2022-12-18T04:10:16;16.07;;;7.20;;
15876;SDS011;8037;51.666;7.834;2022-12-18T04:12:42;9.70;;;6.83;;
15876;SDS011;8037;51.666;7.834;2022-12-18T04:15:09;10.73;;;5.70;;
15876;SDS011;8037;51.666;7.834;2022-12-18T04:17:35;8.20;;;5.10;;
15876;SDS011;8037;51.666;7.834;2022-12-18T04:20:02;7.30;;;5.33;;
15876;SDS011;8037;51.666;7.834;2022-12-18T04:22:28;8.60;;;6.00;;
15876;SDS011;8037;51.666;7.834;2022-12-18T04:24:54;5.33;;;4.93;;
15876;SDS011;8037;51.666;7.834;2022-12-18T04:27:20;4.90;;;4.57;;
15876;SDS011;8037;51.666;7.834;2022-12-18T04:29:46;5.77;;;5.03;;
15876;SDS011;8037;51.666;7.834;2022-12-18T04:32:12;6.33;;;5.50;;
15876;SDS011;8037;51.666;7.834;2022-12-18T04:34:38;11.30;;;6.60;;
15876;SDS011;8037;51.666;7.834;2022-12-18T04:37:03;4.90;;;4.33;;
15876;SDS011;8037;51.666;7.834;2022-12-18T04:39:29;17.83;;;5.63;;
15876;SDS011;8037;51.666;7.834;2022-12-18T04:41:56;6.83;;;5.90;;
15876;SDS011;8037;51.666;7.834;2022-12-18T04:44:24;6.87;;;4.80;;
15876;SDS011;8037;51.666;7.834;2022-12-18T04:46:50;10.63;;;8.10;;
15876;SDS011;8037;51.666;7.834;2022-12-18T04:49:16;7.90;;;5.93;;
15876;SDS011;8037;51.666;7.834;2022-12-18T04:51:42;4.90;;;4.50;;
15876;SDS011;8037;51.666;7.834;2022-12-18T04:54:08;6.63;;;4.20;;
15876;SDS011;8037;51.666;7.834;2022-12-18T04:56:34;11.17;;;5.60;;
15876;SDS011;8037;51.666;7.834;2022-12-18T04:58:59;9.47;;;6.53;;
15876;SDS011;8037;51.666;7.834;2022-12-18T05:01:25;9.43;;;4.43;;
15876;SDS011;8037;51.666;7.834;2022-12-18T05:03:51;5.17;;;4.73;;
15876;SDS011;8037;51.666;7.834;2022-12-18T05:06:17;6.60;;;5.50;;
15876;SDS011;8037;51.666;7.834;2022-12-18T05:08:43;3.87;;;3.50;;
15876;SDS011;8037;51.666;7.834;2022-12-18T05:11:10;7.10;;;5.03;;
15876;SDS011;8037;51.666;7.834;2022-12-18T05:13:37;8.93;;;4.43;;
15876;SDS011;8037;51.666;7.834;2022-12-18T05:16:03;4.80;;;3.67;;
15876;SDS011;8037;51.666;7.834;2022-12-18T05:18:29;4.27;;;3.27;;
15876;SDS011;8037;51.666;7.834;2022-12-18T05:20:55;6.13;;;4.70;;
15876;SDS011;8037;51.666;7.834;2022-12-18T05:23:21;4.93;;;3.20;;
15876;SDS011;8037;51.666;7.834;2022-12-18T05:25:58;13.63;;;4.60;;
15876;SDS011;8037;51.666;7.834;2022-12-18T05:28:26;2.87;;;2.73;;
15876;SDS011;8037;51.666;7.834;2022-12-18T05:30:54;4.77;;;4.33;;
15876;SDS011;8037;51.666;7.834;2022-12-18T05:33:21;7.53;;;5.03;;
15876;SDS011;8037;51.666;7.834;2022-12-18T05:35:51;7.00;;;4.83;;
15876;SDS011;8037;51.666;7.834;2022-12-18T05:38:21;8.70;;;5.23;;
15876;SDS011;8037;51.666;7.834;2022-12-18T05:40:48;5.70;;;5.20;;
15876;SDS011;8037;51.666;7.834;2022-12-18T05:43:14;5.83;;;4.67;;
15876;SDS011;8037;51.666;7.834;2022-12-18T05:45:41;3.73;;;3.20;;
15876;SDS011;8037;51.666;7.834;2022-12-18T05:48:07;3.70;;;2.50;;
15876;SDS011;8037;51.666;7.834;2022-12-18T05:50:34;1.93;;;1.83;;
15876;SDS011;8037;51.666;7.834;2022-12-18T05:53:00;4.37;;;3.50;;
15876;SDS011;8037;51.666;7.834;2022-12-18T05:55:26;4.23;;;3.70;;
15876;SDS011;8037;51.666;7.834;2022-12-18T05:57:53;4.17;;;3.80;;
15876;SDS011;8037;51.666;7.834;2022-12-18T06:00:19;5.10;;;4.30;;
15876;SDS011;8037;51.666;7.834;2022-12-18T06:02:48;5.80;;;5.30;;
15876;SDS011;8037;51.666;7.834;2022-12-18T06:05:14;7.10;;;3.90;;
15876;SDS011;8037;51.666;7.834;2022-12-18T06:07:40;7.30;;;6.60;;
15876;SDS011;8037;51.666;7.834;2022-12-18T06:10:05;6.23;;;4.20;;
15876;SDS011;8037;51.666;7.834;2022-12-18T06:12:31;5.07;;;4.67;;
15876;SDS011;8037;51.666;7.834;2022-12-18T06:14:58;5.17;;;4.20;;
15876;SDS011;8037;51.666;7.834;2022-12-18T06:17:27;8.63;;;3.37;;
15876;SDS011;8037;51.666;7.834;2022-12-18T06:19:54;6.63;;;3.17;;
15876;SDS011;8037;51.666;7.834;2022-12-18T06:22:20;4.17;;;3.90;;
15876;SDS011;8037;51.666;7.834;2022-12-18T06:24:46;4.77;;;3.57;;
15876;SDS011;8037;51.666;7.834;2022-12-18T06:27:12;7.47;;;2.97;;
15876;SDS011;8037;51.666;7.834;2022-12-18T06:29:38;8.13;;;4.10;;
15876;SDS011;8037;51.666;7.834;2022-12-18T06:32:04;6.63;;;4.93;;
15876;SDS011;8037;51.666;7.834;2022-12-18T06:34:30;3.90;;;3.50;;
15876;SDS011;8037;51.666;7.834;2022-12-18T06:36:56;4.50;;;2.53;;
15876;SDS011;8037;51.666;7.834;2022-12-18T06:39:21;2.90;;;2.70;;
15876;SDS011;8037;51.666;7.834;2022-12-18T06:41:47;5.80;;;3.37;;
15876;SDS011;8037;51.666;7.834;2022-12-18T06:44:13;7.20;;;4.40;;
15876;SDS011;8037;51.666;7.834;2022-12-18T06:46:39;4.20;;;2.43;;
15876;SDS011;8037;51.666;7.834;2022-12-18T06:49:05;4.60;;;4.20;;
15876;SDS011;8037;51.666;7.834;2022-12-18T06:51:34;3.07;;;2.87;;
15876;SDS011;8037;51.666;7.834;2022-12-18T06:53:59;8.03;;;5.03;;
15876;SDS011;8037;51.666;7.834;2022-12-18T06:56:26;2.93;;;2.83;;
15876;SDS011;8037;51.666;7.834;2022-12-18T06:58:52;1.40;;;1.30;;
15876;SDS011;8037;51.666;7.834;2022-12-18T07:01:18;3.20;;;2.70;;
15876;SDS011;8037;51.666;7.834;2022-12-18T07:03:44;6.13;;;3.63;;
15876;SDS011;8037;51.666;7.834;2022-12-18T07:06:15;4.03;;;3.07;;
15876;SDS011;8037;51.666;7.834;2022-12-18T07:08:43;3.57;;;3.37;;
15876;SDS011;8037;51.666;7.834;2022-12-18T07:11:09;4.27;;;3.97;;
15876;SDS011;8037;51.666;7.834;2022-12-18T07:13:35;1.90;;;1.80;;
15876;SDS011;8037;51.666;7.834;2022-12-18T07:16:05;4.87;;;4.40;;
15876;SDS011;8037;51.666;7.834;2022-12-18T07:18:35;9.80;;;4.37;;
15876;SDS011;8037;51.666;7.834;2022-12-18T07:21:08;5.33;;;4.70;;
15876;SDS011;8037;51.666;7.834;2022-12-18T07:23:35;3.27;;;3.07;;
15876;SDS011;8037;51.666;7.834;2022-12-18T07:26:03;1.47;;;1.37;;
15876;SDS011;8037;51.666;7.834;2022-12-18T07:28:29;3.00;;;2.20;;
15876;SDS011;8037;51.666;7.834;2022-12-18T07:30:55;6.33;;;4.70;;
15876;SDS011;8037;51.666;7.834;2022-12-18T07:33:21;4.30;;;3.53;;
15876;SDS011;8037;51.666;7.834;2022-12-18T07:35:46;4.60;;;4.20;;
15876;SDS011;8037;51.666;7.834;2022-12-18T07:38:12;5.37;;;3.93;;
15876;SDS011;8037;51.666;7.834;2022-12-18T07:40:38;2.53;;;2.37;;
15876;SDS011;8037;51.666;7.834;2022-12-18T07:43:04;2.47;;;2.27;;
15876;SDS011;8037;51.666;7.834;2022-12-18T07:45:30;2.93;;;2.83;;
15876;SDS011;8037;51.666;7.834;2022-12-18T07:47:55;5.20;;;3.03;;
15876;SDS011;8037;51.666;7.834;2022-12-18T07:50:21;9.00;;;5.73;;
15876;SDS011;8037;51.666;7.834;2022-12-18T07:52:48;5.60;;;4.30;;
15876;SDS011;8037;51.666;7.834;2022-12-18T07:55:14;2.20;;;1.47;;
15876;SDS011;8037;51.666;7.834;2022-12-18T07:57:40;3.70;;;3.40;;
15876;SDS011;8037;51.666;7.834;2022-12-18T08:00:06;4.27;;;3.87;;
15876;SDS011;8037;51.666;7.834;2022-12-18T08:02:32;5.00;;;4.50;;
15876;SDS011;8037;51.666;7.834;2022-12-18T08:04:58;5.03;;;3.80;;
15876;SDS011;8037;51.666;7.834;2022-12-18T08:07:24;5.40;;;3.00;;
15876;SDS011;8037;51.666;7.834;2022-12-18T08:09:50;2.50;;;2.30;;
15876;SDS011;8037;51.666;7.834;2022-12-18T08:12:16;10.00;;;4.00;;
15876;SDS011;8037;51.666;7.834;2022-12-18T08:14:42;3.33;;;2.97;;
15876;SDS011;8037;51.666;7.834;2022-12-18T08:17:08;2.73;;;2.50;;
15876;SDS011;8037;51.666;7.834;2022-12-18T08:19:34;3.50;;;2.60;;
15876;SDS011;8037;51.666;7.834;2022-12-18T08:22:00;9.20;;;6.13;;
15876;SDS011;8037;51.666;7.834;2022-12-18T08:24:26;5.47;;;5.00;;
15876;SDS011;8037;51.666;7.834;2022-12-18T08:26:52;5.40;;;4.03;;
15876;SDS011;8037;51.666;7.834;2022-12-18T08:29:18;11.37;;;5.10;;
15876;SDS011;8037;51.666;7.834;2022-12-18T08:31:44;11.57;;;5.30;;
15876;SDS011;8037;51.666;7.834;2022-12-18T08:34:10;3.80;;;2.93;;
15876;SDS011;8037;51.666;7.834;2022-12-18T08:36:36;11.07;;;4.57;;
15876;SDS011;8037;51.666;7.834;2022-12-18T08:39:02;2.50;;;2.40;;
15876;SDS011;8037;51.666;7.834;2022-12-18T08:41:28;1.90;;;1.80;;
15876;SDS011;8037;51.666;7.834;2022-12-18T08:43:54;2.00;;;1.93;;
15876;SDS011;8037;51.666;7.834;2022-12-18T08:46:39;2.77;;;2.67;;
15876;SDS011;8037;51.666;7.834;2022-12-18T08:49:06;7.27;;;5.27;;
15876;SDS011;8037;51.666;7.834;2022-12-18T08:51:33;4.20;;;3.70;;
15876;SDS011;8037;51.666;7.834;2022-12-18T08:53:59;4.17;;;3.77;;
15876;SDS011;8037;51.666;7.834;2022-12-18T08:56:25;8.20;;;5.07;;
15876;SDS011;8037;51.666;7.834;2022-12-18T08:58:52;2.63;;;2.53;;
15876;SDS011;8037;51.666;7.834;2022-12-18T09:01:24;3.60;;;2.00;;
15876;SDS011;8037;51.666;7.834;2022-12-18T09:04:02;3.00;;;2.80;;
15876;SDS011;8037;51.666;7.834;2022-12-18T09:06:28;2.70;;;2.10;;
15876;SDS011;8037;51.666;7.834;2022-12-18T09:08:54;2.00;;;1.90;;
15876;SDS011;8037;51.666;7.834;2022-12-18T09:11:21;7.80;;;2.60;;
15876;SDS011;8037;51.666;7.834;2022-12-18T09:13:51;2.20;;;2.10;;
15876;SDS011;8037;51.666;7.834;2022-12-18T09:16:17;3.80;;;2.50;;
15876;SDS011;8037;51.666;7.834;2022-12-18T09:18:44;2.43;;;2.23;;
15876;SDS011;8037;51.666;7.834;2022-12-18T09:21:13;1.37;;;1.27;;
15876;SDS011;8037;51.666;7.834;2022-12-18T09:23:41;5.10;;;2.00;;
15876;SDS011;8037;51.666;7.834;2022-12-18T09:26:07;2.57;;;2.43;;
15876;SDS011;8037;51.666;7.834;2022-12-18T09:28:33;6.27;;;3.80;;
15876;SDS011;8037;51.666;7.834;2022-12-18T09:31:02;2.23;;;2.07;;
15876;SDS011;8037;51.666;7.834;2022-12-18T09:33:31;6.73;;;4.30;;
15876;SDS011;8037;51.666;7.834;2022-12-18T09:35:56;4.13;;;3.80;;
15876;SDS011;8037;51.666;7.834;2022-12-18T09:38:22;1.60;;;1.50;;
15876;SDS011;8037;51.666;7.834;2022-12-18T09:40:49;2.10;;;2.00;;
15876;SDS011;8037;51.666;7.834;2022-12-18T09:43:18;8.20;;;3.63;;
15876;SDS011;8037;51.666;7.834;2022-12-18T09:45:53;2.03;;;1.80;;
15876;SDS011;8037;51.666;7.834;2022-12-18T09:48:27;4.30;;;2.70;;
15876;SDS011;8037;51.666;7.834;2022-12-18T09:50:58;5.03;;;2.80;;
15876;SDS011;8037;51.666;7.834;2022-12-18T09:53:30;12.23;;;4.07;;
15876;SDS011;8037;51.666;7.834;2022-12-18T09:55:59;2.73;;;2.37;;
15876;SDS011;8037;51.666;7.834;2022-12-18T09:58:31;3.47;;;2.57;;
15876;SDS011;8037;51.666;7.834;2022-12-18T10:01:00;7.63;;;3.67;;
15876;SDS011;8037;51.666;7.834;2022-12-18T10:03:26;1.80;;;1.13;;
15876;SDS011;8037;51.666;7.834;2022-12-18T10:06:13;2.50;;;1.60;;
15876;SDS011;8037;51.666;7.834;2022-12-18T10:08:57;3.23;;;2.93;;
15876;SDS011;8037;51.666;7.834;2022-12-18T10:13:57;2.43;;;2.30;;
15876;SDS011;8037;51.666;7.834;2022-12-18T10:16:36;2.67;;;2.50;;
15876;SDS011;8037;51.666;7.834;2022-12-18T10:25:01;1.60;;;1.50;;
15876;SDS011;8037;51.666;7.834;2022-12-18T10:27:44;2.30;;;2.17;;
15876;SDS011;8037;51.666;7.834;2022-12-18T10:30:20;1.60;;;1.50;;
15876;SDS011;8037;51.666;7.834;2022-12-18T10:32:47;1.30;;;1.30;;
15876;SDS011;8037;51.666;7.834;2022-12-18T10:35:21;5.03;;;1.83;;
15876;SDS011;8037;51.666;7.834;2022-12-18T10:38:20;1.93;;;1.83;;
15876;SDS011;8037;51.666;7.834;2022-12-18T10:40:51;1.37;;;1.30;;
15876;SDS011;8037;51.666;7.834;2022-12-18T10:45:58;5.07;;;3.30;;
15876;SDS011;8037;51.666;7.834;2022-12-18T10:48:27;1.27;;;1.27;;
15876;SDS011;8037;51.666;7.834;2022-12-18T10:50:54;5.03;;;3.30;;
15876;SDS011;8037;51.666;7.834;2022-12-18T10:53:22;4.23;;;2.50;;
15876;SDS011;8037;51.666;7.834;2022-12-18T10:55:50;2.53;;;2.30;;
15876;SDS011;8037;51.666;7.834;2022-12-18T11:01:17;2.00;;;1.90;;
15876;SDS011;8037;51.666;7.834;2022-12-18T11:06:21;1.80;;;1.70;;
15876;SDS011;8037;51.666;7.834;2022-12-18T11:09:03;1.50;;;1.23;;
15876;SDS011;8037;51.666;7.834;2022-12-18T11:11:30;1.17;;;1.17;;
15876;SDS011;8037;51.666;7.834;2022-12-18T11:14:12;5.20;;;2.17;;
15876;SDS011;8037;51.666;7.834;2022-12-18T11:16:44;2.93;;;1.70;;
15876;SDS011;8037;51.666;7.834;2022-12-18T11:22:01;2.57;;;1.50;;
15876;SDS011;8037;51.666;7.834;2022-12-18T11:24:33;1.97;;;1.83;;
15876;SDS011;8037;51.666;7.834;2022-12-18T11:27:02;2.60;;;1.43;;
15876;SDS011;8037;51.666;7.834;2022-12-18T11:29:37;0.77;;;0.77;;
15876;SDS011;8037;51.666;7.834;2022-12-18T11:34:39;1.43;;;1.33;;
15876;SDS011;8037;51.666;7.834;2022-12-18T11:37:10;1.70;;;1.63;;
15876;SDS011;8037;51.666;7.834;2022-12-18T11:39:42;2.53;;;1.10;;
15876;SDS011;8037;51.666;7.834;2022-12-18T11:42:38;2.17;;;2.03;;
15876;SDS011;8037;51.666;7.834;2022-12-18T11:47:57;5.40;;;2.40;;
15876;SDS011;8037;51.666;7.834;2022-12-18T11:50:29;1.90;;;1.80;;
15876;SDS011;8037;51.666;7.834;2022-12-18T11:53:02;2.27;;;1.97;;
15876;SDS011;8037;51.666;7.834;2022-12-18T12:00:51;1.80;;;1.70;;
15876;SDS011;8037;51.666;7.834;2022-12-18T12:06:44;3.30;;;3.10;;
15876;SDS011;8037;51.666;7.834;2022-12-18T12:12:23;3.13;;;2.93;;
15876;SDS011;8037;51.666;7.834;2022-12-18T12:17:38;5.17;;;3.07;;
15876;SDS011;8037;51.666;7.834;2022-12-18T12:20:20;6.73;;;3.87;;
15876;SDS011;8037;51.666;7.834;2022-12-18T12:28:03;5.03;;;3.53;;
15876;SDS011;8037;51.666;7.834;2022-12-18T12:30:51;6.40;;;5.27;;
15876;SDS011;8037;51.666;7.834;2022-12-18T12:36:01;4.87;;;4.13;;
15876;SDS011;8037;51.666;7.834;2022-12-18T12:38:41;3.70;;;3.37;;
15876;SDS011;8037;51.666;7.834;2022-12-18T12:41:14;3.67;;;3.33;;
15876;SDS011;8037;51.666;7.834;2022-12-18T12:44:05;3.40;;;3.20;;
15876;SDS011;8037;51.666;7.834;2022-12-18T12:46:34;4.03;;;3.67;;
15876;SDS011;8037;51.666;7.834;2022-12-18T12:49:04;3.00;;;2.50;;
15876;SDS011;8037;51.666;7.834;2022-12-18T12:51:47;5.70;;;2.43;;
15876;SDS011;8037;51.666;7.834;2022-12-18T12:54:21;12.20;;;2.40;;
15876;SDS011;8037;51.666;7.834;2022-12-18T12:59:35;4.47;;;3.30;;
15876;SDS011;8037;51.666;7.834;2022-12-18T13:02:28;7.10;;;3.07;;
15876;SDS011;8037;51.666;7.834;2022-12-18T13:05:33;3.50;;;2.90;;
15876;SDS011;8037;51.666;7.834;2022-12-18T13:08:04;2.70;;;2.50;;
15876;SDS011;8037;51.666;7.834;2022-12-18T13:10:38;4.87;;;3.17;;
15876;SDS011;8037;51.666;7.834;2022-12-18T13:13:12;2.50;;;2.30;;
15876;SDS011;8037;51.666;7.834;2022-12-18T13:23:18;2.60;;;2.50;;
15876;SDS011;8037;51.666;7.834;2022-12-18T13:25:48;4.00;;;2.70;;
15876;SDS011;8037;51.666;7.834;2022-12-18T13:28:20;3.97;;;3.13;;
15876;SDS011;8037;51.666;7.834;2022-12-18T13:30:59;3.80;;;3.47;;
15876;SDS011;8037;51.666;7.834;2022-12-18T13:38:37;6.53;;;4.20;;
15876;SDS011;8037;51.666;7.834;2022-12-18T13:41:20;4.00;;;3.30;;
15876;SDS011;8037;51.666;7.834;2022-12-18T13:43:55;4.07;;;3.67;;
15876;SDS011;8037;51.666;7.834;2022-12-18T13:51:43;5.10;;;4.60;;
15876;SDS011;8037;51.666;7.834;2022-12-18T13:56:42;5.30;;;3.90;;
15876;SDS011;8037;51.666;7.834;2022-12-18T14:01:44;6.20;;;4.00;;
15876;SDS011;8037;51.666;7.834;2022-12-18T14:04:18;7.60;;;4.50;;
15876;SDS011;8037;51.666;7.834;2022-12-18T14:06:50;4.07;;;3.07;;
15876;SDS011;8037;51.666;7.834;2022-12-18T14:09:27;6.70;;;3.83;;
15876;SDS011;8037;51.666;7.834;2022-12-18T14:11:55;5.03;;;4.13;;
15876;SDS011;8037;51.666;7.834;2022-12-18T14:14:46;5.30;;;4.33;;
15876;SDS011;8037;51.666;7.834;2022-12-18T14:17:14;5.97;;;5.03;;
15876;SDS011;8037;51.666;7.834;2022-12-18T14:19:41;11.47;;;4.87;;
15876;SDS011;8037;51.666;7.834;2022-12-18T14:22:13;5.50;;;5.10;;
15876;SDS011;8037;51.666;7.834;2022-12-18T14:24:41;3.30;;;3.10;;
15876;SDS011;8037;51.666;7.834;2022-12-18T14:27:24;5.33;;;4.20;;
15876;SDS011;8037;51.666;7.834;2022-12-18T14:29:50;7.80;;;6.27;;
15876;SDS011;8037;51.666;7.834;2022-12-18T14:32:19;10.00;;;5.33;;
15876;SDS011;8037;51.666;7.834;2022-12-18T14:34:46;10.97;;;4.20;;
15876;SDS011;8037;51.666;7.834;2022-12-18T14:37:25;7.63;;;3.87;;
15876;SDS011;8037;51.666;7.834;2022-12-18T14:39:53;5.23;;;4.67;;
15876;SDS011;8037;51.666;7.834;2022-12-18T14:42:19;5.03;;;4.53;;
15876;SDS011;8037;51.666;7.834;2022-12-18T14:44:45;7.80;;;4.07;;
15876;SDS011;8037;51.666;7.834;2022-12-18T14:47:14;4.10;;;3.80;;
15876;SDS011;8037;51.666;7.834;2022-12-18T14:49:40;7.83;;;5.80;;
15876;SDS011;8037;51.666;7.834;2022-12-18T14:52:16;4.83;;;3.43;;
15876;SDS011;8037;51.666;7.834;2022-12-18T14:54:50;6.37;;;3.57;;
15876;SDS011;8037;51.666;7.834;2022-12-18T14:57:23;7.70;;;3.90;;
15876;SDS011;8037;51.666;7.834;2022-12-18T14:59:55;2.83;;;2.60;;
15876;SDS011;8037;51.666;7.834;2022-12-18T15:02:34;2.87;;;2.63;;
15876;SDS011;8037;51.666;7.834;2022-12-18T15:05:02;4.43;;;3.10;;
15876;SDS011;8037;51.666;7.834;2022-12-18T15:07:39;2.47;;;2.27;;
15876;SDS011;8037;51.666;7.834;2022-12-18T15:17:58;9.63;;;3.67;;
15876;SDS011;8037;51.666;7.834;2022-12-18T15:20:49;4.10;;;3.30;;
15876;SDS011;8037;51.666;7.834;2022-12-18T15:23:21;3.13;;;2.90;;
15876;SDS011;8037;51.666;7.834;2022-12-18T15:25:56;3.63;;;2.70;;
15876;SDS011;8037;51.666;7.834;2022-12-18T15:33:42;3.17;;;2.97;;
15876;SDS011;8037;51.666;7.834;2022-12-18T15:36:09;2.80;;;2.37;;
15876;SDS011;8037;51.666;7.834;2022-12-18T15:38:37;1.87;;;1.70;;
15876;SDS011;8037;51.666;7.834;2022-12-18T15:41:03;1.90;;;1.80;;
15876;SDS011;8037;51.666;7.834;2022-12-18T15:43:29;2.87;;;2.00;;
15876;SDS011;8037;51.666;7.834;2022-12-18T15:45:59;2.10;;;1.63;;
15876;SDS011;8037;51.666;7.834;2022-12-18T15:48:29;3.30;;;3.00;;
15876;SDS011;8037;51.666;7.834;2022-12-18T15:50:58;3.80;;;2.90;;
15876;SDS011;8037;51.666;7.834;2022-12-18T15:53:25;3.30;;;3.00;;
15876;SDS011;8037;51.666;7.834;2022-12-18T15:55:54;3.80;;;3.50;;
15876;SDS011;8037;51.666;7.834;2022-12-18T15:58:43;2.90;;;2.70;;
15876;SDS011;8037;51.666;7.834;2022-12-18T16:01:09;2.60;;;2.47;;
15876;SDS011;8037;51.666;7.834;2022-12-18T16:03:36;3.17;;;2.63;;
15876;SDS011;8037;51.666;7.834;2022-12-18T16:06:02;4.10;;;3.67;;
15876;SDS011;8037;51.666;7.834;2022-12-18T16:08:29;4.90;;;3.40;;
15876;SDS011;8037;51.666;7.834;2022-12-18T16:10:55;3.67;;;3.40;;
15876;SDS011;8037;51.666;7.834;2022-12-18T16:13:21;7.33;;;2.27;;
15876;SDS011;8037;51.666;7.834;2022-12-18T16:15:48;3.80;;;2.67;;
15876;SDS011;8037;51.666;7.834;2022-12-18T16:18:14;4.20;;;3.10;;
15876;SDS011;8037;51.666;7.834;2022-12-18T16:20:40;3.00;;;2.33;;
15876;SDS011;8037;51.666;7.834;2022-12-18T16:23:06;2.63;;;2.43;;
15876;SDS011;8037;51.666;7.834;2022-12-18T16:25:32;5.73;;;2.80;;
15876;SDS011;8037;51.666;7.834;2022-12-18T16:27:59;29.33;;;14.10;;
15876;SDS011;8037;51.666;7.834;2022-12-18T16:30:29;11.67;;;6.80;;
15876;SDS011;8037;51.666;7.834;2022-12-18T16:32:56;6.40;;;4.50;;
15876;SDS011;8037;51.666;7.834;2022-12-18T16:35:22;3.83;;;3.50;;
15876;SDS011;8037;51.666;7.834;2022-12-18T16:37:49;4.60;;;3.50;;
15876;SDS011;8037;51.666;7.834;2022-12-18T16:40:15;4.60;;;3.17;;
15876;SDS011;8037;51.666;7.834;2022-12-18T16:42:42;3.57;;;3.37;;
15876;SDS011;8037;51.666;7.834;2022-12-18T16:45:10;3.47;;;3.17;;
15876;SDS011;8037;51.666;7.834;2022-12-18T16:47:38;7.17;;;4.50;;
15876;SDS011;8037;51.666;7.834;2022-12-18T16:50:04;9.43;;;4.20;;
15876;SDS011;8037;51.666;7.834;2022-12-18T16:52:31;7.50;;;4.73;;
15876;SDS011;8037;51.666;7.834;2022-12-18T16:54:57;3.20;;;2.97;;